createdAt,value
2022-09-01T00:00:02.315Z,2.67
2022-09-01T00:02:30.380Z,3.50
2022-09-01T00:04:58.816Z,3.70
2022-09-01T00:07:27.323Z,4.68
2022-09-01T00:09:54.513Z,5.35
2022-09-01T00:12:22.830Z,3.65
2022-09-01T00:14:50.028Z,4.70
2022-09-01T00:17:17.186Z,4.63
2022-09-01T00:19:44.602Z,3.47
2022-09-01T00:22:11.836Z,3.28
2022-09-01T00:24:39.057Z,3.40
2022-09-01T00:27:06.229Z,3.50
2022-09-01T00:29:33.408Z,4.20
2022-09-01T00:32:00.538Z,4.03
2022-09-01T00:34:27.737Z,3.63
2022-09-01T00:36:54.905Z,4.00
2022-09-01T00:39:22.119Z,3.60
2022-09-01T00:41:50.793Z,4.28
2022-09-01T00:44:19.653Z,3.72
2022-09-01T00:46:50.968Z,8.73
2022-09-01T00:49:28.969Z,4.88
2022-09-01T00:52:19.978Z,5.72
2022-09-01T00:54:49.968Z,4.47
2022-09-01T00:57:17.365Z,7.22
2022-09-01T00:59:47.403Z,5.38
2022-09-01T01:02:14.805Z,5.47
2022-09-01T01:04:43.787Z,5.53
2022-09-01T01:07:11.633Z,5.07
2022-09-01T01:09:40.729Z,9.23
2022-09-01T01:12:11.793Z,6.15
2022-09-01T01:14:40.087Z,7.93
2022-09-01T01:17:07.616Z,4.65
2022-09-01T01:19:53.522Z,6.03
2022-09-01T01:22:42.372Z,6.00
2022-09-01T01:25:12.909Z,6.05
2022-09-01T01:27:43.797Z,5.03
2022-09-01T01:30:12.662Z,5.00
2022-09-01T01:32:43.913Z,7.10
2022-09-01T01:35:15.111Z,5.47
2022-09-01T01:37:46.665Z,7.40
2022-09-01T01:40:15.912Z,6.20
2022-09-01T01:42:48.081Z,5.45
2022-09-01T01:45:17.343Z,4.72
2022-09-01T01:47:51.706Z,6.47
2022-09-01T01:50:18.930Z,7.00
2022-09-01T01:52:46.167Z,5.43
2022-09-01T01:55:13.634Z,5.60
2022-09-01T01:57:50.066Z,5.05
2022-09-01T02:00:30.537Z,4.75
2022-09-01T02:02:58.158Z,7.28
2022-09-01T02:05:30.235Z,4.82
2022-09-01T02:08:00.039Z,4.70
2022-09-01T02:10:29.603Z,7.88
2022-09-01T02:12:58.119Z,7.72
2022-09-01T02:15:25.574Z,6.15
2022-09-01T02:17:53.330Z,5.95
2022-09-01T02:20:23.146Z,5.53
2022-09-01T02:22:52.027Z,6.38
2022-09-01T02:25:23.602Z,8.98
2022-09-01T02:27:55.562Z,5.53
2022-09-01T02:30:26.633Z,5.60
2022-09-01T02:32:53.786Z,5.93
2022-09-01T02:35:21.010Z,5.95
2022-09-01T02:37:51.551Z,7.18
2022-09-01T02:40:18.758Z,5.70
2022-09-01T02:42:48.042Z,6.28
2022-09-01T02:45:16.345Z,6.30
2022-09-01T02:47:46.652Z,5.80
2022-09-01T02:50:17.116Z,8.32
2022-09-01T02:52:45.258Z,10.23
2022-09-01T02:55:12.765Z,6.00
2022-09-01T02:57:40.024Z,6.57
2022-09-01T03:00:20.858Z,6.38
2022-09-01T03:02:52.176Z,8.30
2022-09-01T03:05:25.354Z,6.22
2022-09-01T03:07:56.559Z,6.38
2022-09-01T03:10:36.264Z,7.00
2022-09-01T03:13:05.104Z,7.43
2022-09-01T03:15:34.100Z,5.90
2022-09-01T03:18:02.717Z,5.72
2022-09-01T03:20:31.228Z,5.72
2022-09-01T03:22:59.207Z,7.68
2022-09-01T03:25:28.847Z,7.80
2022-09-01T03:27:56.085Z,5.68
2022-09-01T03:30:23.914Z,7.03
2022-09-01T03:32:51.004Z,5.93
2022-09-01T03:35:18.248Z,6.25
2022-09-01T03:37:45.593Z,6.88
2022-09-01T03:40:13.674Z,5.35
2022-09-01T03:42:41.084Z,15.60
2022-09-01T03:45:09.213Z,5.40
2022-09-01T03:47:40.164Z,9.18
2022-09-01T03:50:21.341Z,10.02
2022-09-01T03:52:57.906Z,6.88
2022-09-01T03:55:27.361Z,16.92
2022-09-01T03:57:55.860Z,12.40
2022-09-01T04:00:24.138Z,10.23
2022-09-01T04:02:56.217Z,8.70
2022-09-01T04:05:25.132Z,8.65
2022-09-01T04:07:52.720Z,8.65
2022-09-01T04:10:19.888Z,9.95
2022-09-01T04:12:46.998Z,9.57
2022-09-01T04:15:15.278Z,8.13
2022-09-01T04:18:01.097Z,9.52
2022-09-01T04:20:29.190Z,7.18
2022-09-01T04:22:58.023Z,10.38
2022-09-01T04:25:26.838Z,6.60
2022-09-01T04:27:58.931Z,11.65
2022-09-01T04:30:29.393Z,7.55
2022-09-01T04:32:56.948Z,10.45
2022-09-01T04:35:36.265Z,10.23
2022-09-01T04:38:08.351Z,12.18
2022-09-01T04:40:39.666Z,8.27
2022-09-01T04:43:07.808Z,7.78
2022-09-01T04:45:38.256Z,7.28
2022-09-01T04:48:06.048Z,6.40
2022-09-01T04:50:34.917Z,7.82
2022-09-01T04:53:03.260Z,8.00
2022-09-01T04:55:32.912Z,10.02
2022-09-01T04:58:08.360Z,7.47
2022-09-01T05:00:38.927Z,7.10
2022-09-01T05:03:06.063Z,7.90
2022-09-01T05:05:43.058Z,10.13
2022-09-01T05:08:23.649Z,6.68
2022-09-01T05:10:55.576Z,7.43
2022-09-01T05:13:23.737Z,8.27
2022-09-01T05:16:01.921Z,9.20
2022-09-01T05:18:29.725Z,9.23
2022-09-01T05:20:57.566Z,9.40
2022-09-01T05:23:26.659Z,12.32
2022-09-01T05:25:54.900Z,10.70
2022-09-01T05:28:27.120Z,12.20
2022-09-01T05:30:54.681Z,10.65
2022-09-01T05:33:22.185Z,17.50
2022-09-01T05:35:55.540Z,21.38
2022-09-01T05:38:24.236Z,64.25
2022-09-01T05:41:07.185Z,47.80
2022-09-01T05:43:34.293Z,51.33
2022-09-01T05:46:07.004Z,31.45
2022-09-01T05:48:39.855Z,36.88
2022-09-01T05:51:22.226Z,30.55
2022-09-01T05:53:55.878Z,15.88
2022-09-01T05:56:24.124Z,12.45
2022-09-01T06:01:41.101Z,6.80
2022-09-01T06:04:10.053Z,6.70
2022-09-01T06:07:05.802Z,7.65
2022-09-01T06:09:38.388Z,10.85
2022-09-01T06:12:05.779Z,13.13
2022-09-01T06:14:33.105Z,10.52
2022-09-01T06:17:01.083Z,10.70
2022-09-01T06:19:30.042Z,8.40
2022-09-01T06:21:58.595Z,9.00
2022-09-01T06:24:25.705Z,7.13
2022-09-01T06:26:54.940Z,7.45
2022-09-01T06:29:22.309Z,16.48
2022-09-01T06:31:52.734Z,8.85
2022-09-01T06:34:20.552Z,7.95
2022-09-01T06:36:49.657Z,9.25
2022-09-01T06:39:20.418Z,13.80
2022-09-01T06:41:52.964Z,5.28
2022-09-01T06:44:23.154Z,9.13
2022-09-01T06:46:51.999Z,9.52
2022-09-01T06:49:21.434Z,10.80
2022-09-01T06:51:49.743Z,8.57
2022-09-01T06:54:20.729Z,5.68
2022-09-01T06:56:51.826Z,9.30
2022-09-01T06:59:35.437Z,7.13
2022-09-01T07:02:04.801Z,4.75
2022-09-01T07:04:33.214Z,4.10
2022-09-01T07:07:54.209Z,4.82
2022-09-01T07:10:06.264Z,11.93
2022-09-01T07:13:04.816Z,9.40
2022-09-01T07:18:17.615Z,11.63
2022-09-01T07:21:05.454Z,15.07
2022-09-01T07:26:26.395Z,12.30
2022-09-01T07:29:01.129Z,7.65
2022-09-01T07:39:52.143Z,5.43
2022-09-01T07:45:27.369Z,7.85
2022-09-01T07:47:55.534Z,6.25
2022-09-01T07:53:19.590Z,4.53
2022-09-01T07:55:49.986Z,7.13
2022-09-01T07:58:18.191Z,3.45
2022-09-01T08:00:46.564Z,5.07
2022-09-01T08:03:17.682Z,6.72
2022-09-01T08:05:45.268Z,3.80
2022-09-01T08:08:29.140Z,5.85
2022-09-01T08:11:04.322Z,4.63
2022-09-01T08:13:38.808Z,3.85
2022-09-01T08:16:16.257Z,3.17
2022-09-01T08:18:48.779Z,4.00
2022-09-01T08:21:17.342Z,3.92
2022-09-01T08:23:44.489Z,3.97
2022-09-01T08:26:13.822Z,2.80
2022-09-01T08:28:45.951Z,6.47
2022-09-01T08:31:14.682Z,2.42
2022-09-01T08:33:42.673Z,3.17
2022-09-01T08:36:13.096Z,9.52
2022-09-01T08:38:40.969Z,20.10
2022-09-01T08:41:35.141Z,8.05
2022-09-01T08:44:15.386Z,3.08
2022-09-01T08:46:43.731Z,4.55
2022-09-01T08:49:26.186Z,3.42
2022-09-01T08:52:16.640Z,3.72
2022-09-01T08:54:53.035Z,1.35
2022-09-01T08:57:47.786Z,8.45
2022-09-01T09:00:16.242Z,2.05
2022-09-01T09:02:51.920Z,1.55
2022-09-01T09:05:32.123Z,2.80
2022-09-01T09:08:08.110Z,2.25
2022-09-01T09:10:54.125Z,3.40
2022-09-01T09:13:30.450Z,3.60
2022-09-01T09:16:23.984Z,2.15
2022-09-01T09:18:57.862Z,1.85
2022-09-01T09:21:30.537Z,3.92
2022-09-01T09:24:05.239Z,2.13
2022-09-01T09:26:47.836Z,5.18
2022-09-01T09:29:15.070Z,2.20
2022-09-01T09:31:50.462Z,2.58
2022-09-01T09:34:36.824Z,2.88
2022-09-01T09:37:23.173Z,4.60
2022-09-01T09:40:08.590Z,3.08
2022-09-01T09:42:41.600Z,7.03
2022-09-01T09:45:42.322Z,2.45
2022-09-01T09:48:29.624Z,3.70
2022-09-01T09:50:56.903Z,4.40
2022-09-01T09:53:29.557Z,3.80
2022-09-01T09:55:56.724Z,2.97
2022-09-01T09:58:28.033Z,1.58
2022-09-01T10:01:04.005Z,1.98
2022-09-01T10:03:37.739Z,7.85
2022-09-01T10:06:05.045Z,1.97
2022-09-01T10:08:44.720Z,3.95
2022-09-01T10:11:30.043Z,2.55
2022-09-01T10:14:02.698Z,5.70
2022-09-01T10:16:32.269Z,2.00
2022-09-01T10:19:01.626Z,2.92
2022-09-01T10:21:40.166Z,3.47
2022-09-01T10:24:30.984Z,3.35
2022-09-01T10:27:01.064Z,4.40
2022-09-01T10:29:35.223Z,4.05
2022-09-01T10:32:31.402Z,5.57
2022-09-01T10:34:59.827Z,1.98
2022-09-01T10:37:27.612Z,2.35
2022-09-01T10:40:12.866Z,1.65
2022-09-01T10:42:45.347Z,3.50
2022-09-01T10:45:40.382Z,2.67
2022-09-01T10:48:32.004Z,2.13
2022-09-01T10:51:18.791Z,2.75
2022-09-01T10:53:47.221Z,1.13
2022-09-01T10:56:28.081Z,3.30
2022-09-01T10:59:34.759Z,2.83
2022-09-01T11:04:52.027Z,2.45
2022-09-01T11:07:31.608Z,1.30
2022-09-01T11:10:31.843Z,1.75
2022-09-01T11:13:06.151Z,3.80
2022-09-01T11:18:00.463Z,2.17
2022-09-01T11:20:29.106Z,3.15
2022-09-01T11:23:05.527Z,0.52
2022-09-01T11:25:39.670Z,1.60
2022-09-01T11:28:09.183Z,1.05
2022-09-01T11:30:55.116Z,1.17
2022-09-01T11:33:34.480Z,1.85
2022-09-01T11:36:07.027Z,0.70
2022-09-01T11:38:51.378Z,2.15
2022-09-01T11:41:26.659Z,2.22
2022-09-01T11:43:55.511Z,1.00
2022-09-01T11:46:24.245Z,1.75
2022-09-01T11:48:52.104Z,1.38
2022-09-01T11:51:21.326Z,2.03
2022-09-01T11:53:48.476Z,1.83
2022-09-01T11:56:20.389Z,1.75
2022-09-01T11:58:47.624Z,0.50
2022-09-01T12:01:21.396Z,1.38
2022-09-01T12:03:51.965Z,3.15
2022-09-01T12:06:21.474Z,2.47
2022-09-01T12:08:56.495Z,1.75
2022-09-01T12:11:31.727Z,4.18
2022-09-01T12:14:00.982Z,1.77
2022-09-01T12:16:28.666Z,2.40
2022-09-01T12:18:56.739Z,1.02
2022-09-01T12:21:25.964Z,1.85
2022-09-01T12:23:53.316Z,2.85
2022-09-01T12:26:30.684Z,2.13
2022-09-01T12:28:57.949Z,2.70
2022-09-01T12:31:26.500Z,1.42
2022-09-01T12:33:55.342Z,2.35
2022-09-01T12:36:22.495Z,2.00
2022-09-01T12:38:49.694Z,4.20
2022-09-01T12:41:28.937Z,2.75
2022-09-01T12:43:56.477Z,4.95
2022-09-01T12:46:43.968Z,1.02
2022-09-01T12:49:25.123Z,2.38
2022-09-01T12:52:12.048Z,2.17
2022-09-01T12:54:41.627Z,1.83
2022-09-01T12:57:09.005Z,0.75
2022-09-01T12:59:37.567Z,1.55
2022-09-01T13:02:23.957Z,2.95
2022-09-01T13:04:51.176Z,1.00
2022-09-01T13:07:18.287Z,6.10
2022-09-01T13:09:45.928Z,0.77
2022-09-01T13:12:17.843Z,1.75
2022-09-01T13:14:45.009Z,3.38
2022-09-01T13:17:14.260Z,2.03
2022-09-01T13:19:42.250Z,1.35
2022-09-01T13:22:09.478Z,1.45
2022-09-01T13:24:36.822Z,3.17
2022-09-01T13:29:51.356Z,0.90
2022-09-01T13:32:20.941Z,2.17
2022-09-01T13:34:50.762Z,0.75
2022-09-01T13:37:19.202Z,4.53
2022-09-01T13:39:47.227Z,2.28
2022-09-01T13:42:14.887Z,5.28
2022-09-01T13:44:44.126Z,1.40
2022-09-01T13:50:08.982Z,0.63
2022-09-01T13:52:39.105Z,1.58
2022-09-01T13:55:07.321Z,3.20
2022-09-01T13:57:36.619Z,3.85
2022-09-01T14:00:06.461Z,1.25
2022-09-01T14:02:35.330Z,1.67
2022-09-01T14:05:02.481Z,1.10
2022-09-01T14:07:31.878Z,0.73
2022-09-01T14:09:59.085Z,3.30
2022-09-01T14:12:26.398Z,3.42
2022-09-01T14:17:40.779Z,0.70
2022-09-01T14:20:09.680Z,1.35
2022-09-01T14:22:38.597Z,0.98
2022-09-01T14:25:06.461Z,2.78
2022-09-01T14:27:33.560Z,0.55
2022-09-01T14:30:01.039Z,1.40
2022-09-01T14:32:29.537Z,3.90
2022-09-01T14:34:57.487Z,3.08
2022-09-01T14:37:24.642Z,4.05
2022-09-01T14:39:52.579Z,3.53
2022-09-01T14:42:19.954Z,2.35
2022-09-01T14:44:47.899Z,2.95
2022-09-01T14:47:19.766Z,1.73
2022-09-01T14:49:48.152Z,1.88
2022-09-01T14:52:16.215Z,0.95
2022-09-01T14:54:43.547Z,4.32
2022-09-01T14:59:58.456Z,3.47
2022-09-01T15:02:25.779Z,1.27
2022-09-01T15:04:53.048Z,3.38
2022-09-01T15:07:20.212Z,4.90
2022-09-01T15:09:47.346Z,2.83
2022-09-01T15:12:14.449Z,2.00
2022-09-01T15:14:41.730Z,0.77
2022-09-01T15:17:09.505Z,2.90
2022-09-01T15:19:36.660Z,1.00
2022-09-01T15:22:04.670Z,3.88
2022-09-01T15:24:31.801Z,4.78
2022-09-01T15:26:58.939Z,0.75
2022-09-01T15:29:26.100Z,2.70
2022-09-01T15:31:54.690Z,2.30
2022-09-01T15:34:21.821Z,1.38
2022-09-01T15:36:49.001Z,2.47
2022-09-01T15:39:16.138Z,3.50
2022-09-01T15:41:44.581Z,1.38
2022-09-01T15:44:11.736Z,5.43
2022-09-01T15:46:40.574Z,3.75
2022-09-01T15:49:09.399Z,3.60
2022-09-01T15:51:41.138Z,3.05
2022-09-01T15:54:10.558Z,1.83
2022-09-01T15:56:38.174Z,2.55
2022-09-01T15:59:07.066Z,4.72
2022-09-01T16:01:36.361Z,7.35
2022-09-01T16:04:04.832Z,3.22
2022-09-01T16:06:33.101Z,3.05
2022-09-01T16:09:00.296Z,0.70
2022-09-01T16:11:27.450Z,5.28
2022-09-01T16:13:55.156Z,2.95
2022-09-01T16:16:43.608Z,1.00
2022-09-01T16:19:26.566Z,3.65
2022-09-01T16:22:12.337Z,1.67
2022-09-01T16:24:42.408Z,3.58
2022-09-01T16:27:11.658Z,6.72
2022-09-01T16:29:45.246Z,1.10
2022-09-01T16:32:12.692Z,0.88
2022-09-01T16:34:46.674Z,2.05
2022-09-01T16:37:39.667Z,4.53
2022-09-01T16:40:16.027Z,2.47
2022-09-01T16:42:57.868Z,3.83
2022-09-01T16:45:25.317Z,6.43
2022-09-01T16:47:59.703Z,1.45
2022-09-01T16:50:40.150Z,4.63
2022-09-01T16:53:14.125Z,8.57
2022-09-01T16:56:00.293Z,6.07
2022-09-01T16:58:47.735Z,2.83
2022-09-01T17:01:33.683Z,2.83
2022-09-01T17:04:19.026Z,2.97
2022-09-01T17:06:55.040Z,3.95
2022-09-01T17:09:27.144Z,3.13
2022-09-01T17:11:59.021Z,5.55
2022-09-01T17:14:31.554Z,0.80
2022-09-01T17:17:09.396Z,3.20
2022-09-01T17:19:38.277Z,0.75
2022-09-01T17:22:06.969Z,3.10
2022-09-01T17:24:38.659Z,2.20
2022-09-01T17:27:10.995Z,0.90
2022-09-01T17:29:44.958Z,8.15
2022-09-01T17:32:15.183Z,12.25
2022-09-01T17:34:51.800Z,9.25
2022-09-01T17:37:23.001Z,6.60
2022-09-01T17:40:01.502Z,5.00
2022-09-01T17:42:33.604Z,4.05
2022-09-01T17:45:12.943Z,4.55
2022-09-01T17:47:55.276Z,2.63
2022-09-01T17:50:26.307Z,6.75
2022-09-01T17:52:53.390Z,17.20
2022-09-01T17:55:26.642Z,3.25
2022-09-01T17:57:57.916Z,4.85
2022-09-01T18:00:25.059Z,3.92
2022-09-01T18:03:11.054Z,7.78
2022-09-01T18:05:46.418Z,6.70
2022-09-01T18:08:19.712Z,3.25
2022-09-01T18:10:49.802Z,2.47
2022-09-01T18:13:30.674Z,18.77
2022-09-01T18:16:00.612Z,15.13
2022-09-01T18:18:33.129Z,7.68
2022-09-01T18:21:05.181Z,4.32
2022-09-01T18:23:36.123Z,6.43
2022-09-01T18:26:33.601Z,2.75
2022-09-01T18:29:01.928Z,14.82
2022-09-01T18:31:35.439Z,12.35
2022-09-01T18:34:15.769Z,5.43
2022-09-01T18:36:52.179Z,9.63
2022-09-01T18:39:45.948Z,18.27
2022-09-01T18:42:22.254Z,4.90
2022-09-01T18:45:06.918Z,5.75
2022-09-01T18:47:35.511Z,6.43
2022-09-01T18:50:25.177Z,6.38
2022-09-01T18:52:55.216Z,4.07
2022-09-01T18:55:35.974Z,5.72
2022-09-01T18:58:06.164Z,3.53
2022-09-01T19:00:40.231Z,4.90
2022-09-01T19:03:07.474Z,1.67
2022-09-01T19:05:34.753Z,3.17
2022-09-01T19:08:08.026Z,2.25
2022-09-01T19:10:55.482Z,3.40
2022-09-01T19:13:41.169Z,2.05
2022-09-01T19:16:19.987Z,2.58
2022-09-01T19:19:14.377Z,5.65
2022-09-01T19:21:43.724Z,2.97
2022-09-01T19:24:13.559Z,5.88
2022-09-01T19:26:49.446Z,3.65
2022-09-01T19:29:19.397Z,6.75
2022-09-01T19:31:49.314Z,5.28
2022-09-01T19:34:19.694Z,2.33
2022-09-01T19:36:54.178Z,5.75
2022-09-01T19:39:41.180Z,3.13
2022-09-01T19:42:27.310Z,2.92
2022-09-01T19:45:09.789Z,2.42
2022-09-01T19:47:39.853Z,4.55
2022-09-01T19:50:40.742Z,1.70
2022-09-01T19:53:07.817Z,1.92
2022-09-01T19:55:40.559Z,3.63
2022-09-01T19:58:10.998Z,4.15
2022-09-01T20:00:41.989Z,3.63
2022-09-01T20:03:13.141Z,3.63
2022-09-01T20:05:42.198Z,5.78
2022-09-01T20:08:13.515Z,4.90
2022-09-01T20:10:56.116Z,5.32
2022-09-01T20:13:40.750Z,1.55
2022-09-01T20:18:48.111Z,4.85
2022-09-01T20:21:21.318Z,9.63
2022-09-01T20:23:53.561Z,13.60
2022-09-01T20:26:27.157Z,10.95
2022-09-01T20:31:28.547Z,6.03
2022-09-01T20:34:00.969Z,6.22
2022-09-01T20:36:36.241Z,3.70
2022-09-01T20:39:25.122Z,5.45
2022-09-01T20:42:07.038Z,3.25
2022-09-01T20:44:35.909Z,4.63
2022-09-01T20:47:05.474Z,3.72
2022-09-01T20:49:37.269Z,5.50
2022-09-01T20:52:10.686Z,3.05
2022-09-01T20:54:41.035Z,2.75
2022-09-01T20:57:33.416Z,2.42
2022-09-01T21:00:19.583Z,3.92
2022-09-01T21:02:49.936Z,3.50
2022-09-01T21:05:30.401Z,3.17
2022-09-01T21:08:18.306Z,6.80
2022-09-01T21:10:58.748Z,1.75
2022-09-01T21:13:37.878Z,3.10
2022-09-01T21:16:23.778Z,2.03
2022-09-01T21:18:59.106Z,2.65
2022-09-01T21:21:58.785Z,2.60
2022-09-01T21:24:26.317Z,4.28
2022-09-01T21:26:56.531Z,3.30
2022-09-01T21:29:44.770Z,1.80
2022-09-01T21:32:13.902Z,2.03
2022-09-01T21:34:41.193Z,2.20
2022-09-01T21:37:08.297Z,4.15
2022-09-01T21:39:35.655Z,3.72
2022-09-01T21:42:03.070Z,3.13
2022-09-01T21:44:30.465Z,4.15
2022-09-01T21:47:00.106Z,2.10
2022-09-01T21:49:27.769Z,3.45
2022-09-01T21:51:56.322Z,2.75
2022-09-01T21:54:23.511Z,2.17
2022-09-01T21:56:53.335Z,2.22
2022-09-01T21:59:20.707Z,1.95
2022-09-01T22:01:48.594Z,2.20
2022-09-01T22:04:18.256Z,3.13
2022-09-01T22:06:46.347Z,2.53
2022-09-01T22:09:21.049Z,2.28
2022-09-01T22:11:48.867Z,4.47
2022-09-01T22:14:16.049Z,4.90
2022-09-01T22:16:43.328Z,3.30
2022-09-01T22:19:10.825Z,3.30
2022-09-01T22:21:38.072Z,3.05
2022-09-01T22:24:06.394Z,3.13
2022-09-01T22:26:33.573Z,2.80
2022-09-01T22:29:01.681Z,3.17
2022-09-01T22:31:31.234Z,3.58
2022-09-01T22:33:58.577Z,2.58
2022-09-01T22:36:26.974Z,4.43
2022-09-01T22:38:54.624Z,2.97
2022-09-01T22:41:22.998Z,3.58
2022-09-01T22:43:50.473Z,4.82
2022-09-01T22:46:21.318Z,2.92
2022-09-01T22:48:49.837Z,2.40
2022-09-01T22:51:17.617Z,3.10
2022-09-01T22:53:46.232Z,4.20
2022-09-01T22:56:14.958Z,4.18
2022-09-01T22:58:42.385Z,3.75
2022-09-01T23:01:11.339Z,4.25
2022-09-01T23:03:38.509Z,5.43
2022-09-01T23:06:07.204Z,3.30
2022-09-01T23:08:34.604Z,2.70
2022-09-01T23:11:01.852Z,3.20
2022-09-01T23:13:29.522Z,4.32
2022-09-01T23:15:57.789Z,3.55
2022-09-01T23:18:25.644Z,3.85
2022-09-01T23:20:52.768Z,3.67
2022-09-01T23:23:19.934Z,3.75
2022-09-01T23:25:50.450Z,4.90
2022-09-01T23:28:23.303Z,3.15
2022-09-01T23:30:51.104Z,3.00
2022-09-01T23:33:19.303Z,3.35
2022-09-01T23:35:47.833Z,3.75
2022-09-01T23:38:16.888Z,6.75
2022-09-01T23:40:49.319Z,5.30
2022-09-01T23:43:17.506Z,3.50
2022-09-01T23:45:50.443Z,4.03
2022-09-01T23:48:17.981Z,3.28
2022-09-01T23:50:45.124Z,3.75
2022-09-01T23:53:12.759Z,3.65
2022-09-01T23:55:46.848Z,3.58
2022-09-01T23:58:14.410Z,4.10
